createdAt,value
2018-09-21T00:00:09.651Z,16.82
2018-09-21T00:05:04.627Z,16.86
2018-09-21T00:10:02.955Z,16.69
2018-09-21T00:14:59.659Z,16.92
2018-09-21T00:19:55.005Z,16.65
2018-09-21T00:24:49.960Z,16.82
2018-09-21T00:29:46.506Z,16.89
2018-09-21T00:34:41.364Z,16.93
2018-09-21T00:39:36.291Z,16.77
2018-09-21T00:44:31.257Z,16.56
2018-09-21T00:49:27.294Z,16.62
2018-09-21T00:54:22.212Z,16.73
2018-09-21T00:59:17.223Z,16.71
2018-09-21T01:04:14.163Z,16.64
2018-09-21T01:09:11.311Z,16.66
2018-09-21T01:14:06.254Z,16.76
2018-09-21T01:19:01.203Z,16.66
2018-09-21T01:23:56.140Z,16.69
2018-09-21T01:28:51.140Z,16.37
2018-09-21T01:33:46.026Z,16.42
2018-09-21T01:38:40.903Z,16.20
2018-09-21T01:43:35.821Z,16.27
2018-09-21T01:48:30.686Z,16.33
2018-09-21T01:53:25.563Z,16.35
2018-09-21T01:58:20.407Z,16.22
2018-09-21T02:03:15.270Z,16.34
2018-09-21T02:08:10.401Z,16.01
2018-09-21T02:13:05.348Z,16.12
2018-09-21T02:18:00.260Z,16.22
2018-09-21T02:22:55.161Z,16.07
2018-09-21T02:27:50.117Z,15.90
2018-09-21T02:32:45.005Z,15.93
2018-09-21T02:37:39.924Z,15.87
2018-09-21T02:42:34.838Z,16.11
2018-09-21T02:47:29.714Z,16.01
2018-09-21T02:52:24.582Z,16.04
2018-09-21T02:57:19.450Z,15.90
2018-09-21T03:02:14.359Z,16.00
2018-09-21T03:07:09.259Z,16.01
2018-09-21T03:12:04.141Z,15.73
2018-09-21T03:16:59.037Z,15.80
2018-09-21T03:21:53.943Z,15.83
2018-09-21T03:26:48.817Z,15.62
2018-09-21T03:31:43.685Z,15.57
2018-09-21T03:36:38.599Z,15.49
2018-09-21T03:41:33.487Z,15.69
2018-09-21T03:46:28.347Z,15.68
2018-09-21T03:51:23.241Z,15.79
2018-09-21T03:56:18.133Z,15.81
2018-09-21T04:01:13.100Z,15.76
2018-09-21T04:06:07.613Z,15.68
2018-09-21T04:11:02.504Z,15.48
2018-09-21T04:15:57.405Z,15.28
2018-09-21T04:20:52.243Z,15.34
2018-09-21T04:25:47.091Z,15.38
2018-09-21T04:30:41.990Z,15.37
2018-09-21T04:35:36.823Z,15.38
2018-09-21T04:40:31.747Z,15.30
2018-09-21T04:45:26.646Z,15.43
2018-09-21T04:50:21.570Z,15.27
2018-09-21T04:55:16.458Z,15.27
2018-09-21T05:00:11.428Z,15.34
2018-09-21T05:05:06.487Z,15.31
2018-09-21T05:10:01.354Z,15.09
2018-09-21T05:14:56.290Z,15.19
2018-09-21T05:19:51.337Z,15.25
2018-09-21T05:24:46.255Z,15.13
2018-09-21T05:29:41.689Z,15.19
2018-09-21T05:34:36.625Z,15.41
2018-09-21T05:39:31.500Z,15.40
2018-09-21T05:44:26.403Z,15.53
2018-09-21T05:49:21.300Z,15.46
2018-09-21T05:54:16.221Z,15.56
2018-09-21T05:59:11.149Z,15.71
2018-09-21T06:04:06.050Z,15.85
2018-09-21T06:09:00.981Z,15.86
2018-09-21T06:13:55.972Z,15.85
2018-09-21T06:18:50.852Z,15.95
2018-09-21T06:23:45.722Z,16.09
2018-09-21T06:28:40.627Z,16.19
2018-09-21T06:33:35.554Z,16.37
2018-09-21T06:38:30.421Z,16.50
2018-09-21T06:43:25.314Z,16.65
2018-09-21T06:48:20.196Z,16.82
2018-09-21T06:53:15.140Z,16.97
2018-09-21T06:58:10.049Z,17.07
2018-09-21T07:03:05.059Z,17.25
2018-09-21T07:07:59.990Z,17.43
2018-09-21T07:12:55.014Z,17.61
2018-09-21T07:17:49.898Z,17.81
2018-09-21T07:22:44.873Z,18.05
2018-09-21T07:27:39.760Z,18.37
2018-09-21T07:32:34.726Z,18.66
2018-09-21T07:37:29.702Z,18.95
2018-09-21T07:42:24.614Z,19.41
2018-09-21T07:47:19.546Z,19.80
2018-09-21T07:52:14.543Z,20.28
2018-09-21T07:57:09.489Z,20.59
2018-09-21T08:02:04.669Z,21.03
2018-09-21T08:06:59.665Z,21.21
2018-09-21T08:11:54.636Z,21.77
2018-09-21T08:16:49.606Z,21.84
2018-09-21T08:21:45.055Z,22.33
2018-09-21T08:26:40.139Z,22.84
2018-09-21T08:31:42.957Z,23.24
2018-09-21T08:36:37.953Z,22.65
2018-09-21T08:41:32.963Z,22.49
2018-09-21T08:46:27.929Z,22.20
2018-09-21T08:51:22.898Z,22.42
2018-09-21T08:56:17.941Z,22.81
2018-09-21T09:01:12.867Z,22.45
2018-09-21T09:06:08.133Z,22.26
2018-09-21T09:11:03.070Z,22.40
2018-09-21T09:15:58.034Z,22.02
2018-09-21T09:20:54.825Z,22.60
2018-09-21T09:25:49.771Z,22.89
2018-09-21T09:30:44.668Z,22.54
2018-09-21T09:35:39.740Z,22.65
2018-09-21T09:40:34.694Z,23.15
2018-09-21T09:45:29.655Z,23.86
2018-09-21T09:50:24.718Z,23.99
2018-09-21T09:55:19.999Z,23.68
2018-09-21T10:00:15.010Z,24.80
2018-09-21T10:05:09.966Z,25.22
2018-09-21T10:10:05.119Z,24.13
2018-09-21T10:15:00.090Z,23.95
2018-09-21T10:19:55.077Z,24.66
2018-09-21T10:24:49.997Z,25.08
2018-09-21T10:29:44.905Z,24.51
2018-09-21T10:34:39.971Z,25.00
2018-09-21T10:39:34.993Z,25.02
2018-09-21T10:44:30.009Z,24.77
2018-09-21T10:49:24.905Z,25.03
2018-09-21T10:54:19.973Z,24.97
2018-09-21T10:59:14.898Z,24.92
2018-09-21T11:04:09.917Z,25.16
2018-09-21T11:09:07.619Z,25.08
2018-09-21T11:14:02.475Z,24.99
2018-09-21T11:18:57.412Z,25.11
2018-09-21T11:23:52.307Z,25.32
2018-09-21T11:28:47.331Z,25.30
2018-09-21T11:33:42.280Z,25.39
2018-09-21T11:38:37.266Z,25.26
2018-09-21T11:43:32.234Z,25.17
2018-09-21T11:48:27.152Z,25.20
2018-09-21T11:53:22.035Z,25.12
2018-09-21T11:58:16.968Z,25.17
2018-09-21T12:03:11.892Z,25.22
2018-09-21T12:08:06.882Z,25.81
2018-09-21T12:13:01.835Z,25.91
2018-09-21T12:17:56.823Z,25.83
2018-09-21T12:22:51.839Z,25.64
2018-09-21T12:27:46.692Z,25.82
2018-09-21T12:32:41.582Z,25.76
2018-09-21T12:37:36.547Z,25.78
2018-09-21T12:42:31.453Z,25.83
2018-09-21T12:47:26.386Z,25.87
2018-09-21T12:52:21.437Z,25.88
2018-09-21T12:57:16.344Z,26.02
2018-09-21T13:02:11.292Z,26.15
2018-09-21T13:07:06.378Z,26.47
2018-09-21T13:12:01.279Z,26.46
2018-09-21T13:16:56.251Z,26.19
2018-09-21T13:21:51.235Z,26.23
2018-09-21T13:26:46.704Z,26.20
2018-09-21T13:31:41.587Z,26.16
2018-09-21T13:36:36.585Z,25.92
2018-09-21T13:41:31.508Z,25.40
2018-09-21T13:46:26.473Z,25.26
2018-09-21T13:51:21.424Z,25.14
2018-09-21T13:56:16.306Z,24.75
2018-09-21T14:01:11.214Z,24.77
2018-09-21T14:06:06.801Z,24.70
2018-09-21T14:11:01.898Z,24.71
2018-09-21T14:15:56.820Z,24.61
2018-09-21T14:20:51.859Z,24.55
2018-09-21T14:25:46.819Z,24.43
2018-09-21T14:30:41.838Z,24.15
2018-09-21T14:35:36.784Z,23.92
2018-09-21T14:40:31.669Z,23.90
2018-09-21T14:45:26.525Z,24.10
2018-09-21T14:50:21.457Z,23.88
2018-09-21T14:55:16.386Z,23.89
2018-09-21T15:00:11.327Z,23.71
2018-09-21T15:05:06.399Z,23.44
2018-09-21T15:10:01.313Z,23.11
2018-09-21T15:14:56.343Z,23.12
2018-09-21T15:19:51.244Z,23.17
2018-09-21T15:24:46.170Z,23.12
2018-09-21T15:29:41.042Z,23.03
2018-09-21T15:34:35.946Z,23.08
2018-09-21T15:39:30.843Z,22.96
2018-09-21T15:44:25.818Z,22.96
2018-09-21T15:49:20.754Z,22.98
2018-09-21T15:54:15.672Z,22.80
2018-09-21T15:59:10.550Z,22.74
2018-09-21T16:04:05.534Z,22.71
2018-09-21T16:09:00.857Z,22.50
2018-09-21T16:13:55.804Z,22.47
2018-09-21T16:18:50.737Z,22.37
2018-09-21T16:23:45.645Z,22.31
2018-09-21T16:28:40.553Z,22.33
2018-09-21T16:33:35.508Z,22.41
2018-09-21T16:38:31.353Z,22.47
2018-09-21T16:43:26.332Z,22.35
2018-09-21T16:48:21.345Z,22.23
2018-09-21T16:53:16.277Z,22.21
2018-09-21T16:58:11.253Z,22.17
2018-09-21T17:03:06.254Z,22.08
2018-09-21T17:08:01.210Z,22.02
2018-09-21T17:12:56.215Z,21.99
2018-09-21T17:17:51.106Z,21.98
2018-09-21T17:22:46.083Z,22.06
2018-09-21T17:27:41.082Z,21.82
2018-09-21T17:32:36.379Z,20.78
2018-09-21T17:37:31.711Z,20.12
2018-09-21T17:42:26.981Z,19.51
2018-09-21T17:47:22.252Z,19.25
2018-09-21T17:52:17.416Z,18.98
2018-09-21T17:57:12.306Z,18.82
2018-09-21T18:02:07.363Z,18.72
2018-09-21T18:07:02.382Z,18.70
2018-09-21T18:11:57.486Z,18.54
2018-09-21T18:16:52.630Z,18.23
2018-09-21T18:21:47.856Z,18.11
2018-09-21T18:26:42.820Z,18.19
2018-09-21T18:31:37.951Z,17.84
2018-09-21T18:36:33.033Z,18.11
2018-09-21T18:41:28.244Z,17.93
2018-09-21T18:46:23.475Z,17.83
2018-09-21T18:51:18.433Z,17.25
2018-09-21T18:56:13.512Z,17.03
2018-09-21T19:01:08.680Z,17.11
2018-09-21T19:06:03.678Z,17.08
2018-09-21T19:10:58.616Z,16.93
2018-09-21T19:15:53.669Z,17.09
2018-09-21T19:20:48.858Z,17.25
2018-09-21T19:25:44.118Z,16.92
2018-09-21T19:30:39.370Z,17.13
2018-09-21T19:35:34.332Z,17.09
2018-09-21T19:40:29.254Z,16.85
2018-09-21T19:45:24.366Z,17.03
2018-09-21T19:50:19.179Z,17.14
2018-09-21T19:55:14.093Z,17.28
2018-09-21T20:00:09.114Z,17.17
2018-09-21T20:05:04.097Z,17.03
2018-09-21T20:09:59.027Z,17.07
2018-09-21T20:14:53.952Z,16.95
2018-09-21T20:19:48.854Z,17.00
2018-09-21T20:24:43.775Z,16.75
2018-09-21T20:29:38.718Z,16.99
2018-09-21T20:34:33.763Z,16.78
2018-09-21T20:39:28.783Z,16.62
2018-09-21T20:44:23.883Z,16.61
2018-09-21T20:49:18.905Z,16.51
2018-09-21T20:54:13.759Z,16.55
2018-09-21T20:59:08.701Z,16.49
2018-09-21T21:04:03.654Z,16.54
2018-09-21T21:08:58.566Z,16.42
2018-09-21T21:13:53.585Z,16.48
2018-09-21T21:18:48.640Z,16.37
2018-09-21T21:23:46.586Z,16.62
2018-09-21T21:28:42.623Z,16.29
2018-09-21T21:33:37.582Z,16.24
2018-09-21T21:38:32.586Z,16.26
2018-09-21T21:43:27.639Z,15.98
2018-09-21T21:48:22.608Z,15.76
2018-09-21T21:53:17.515Z,15.87
2018-09-21T21:58:12.585Z,15.80
2018-09-21T22:03:07.713Z,15.94
2018-09-21T22:08:02.809Z,15.90
2018-09-21T22:13:02.783Z,15.92
2018-09-21T22:17:57.970Z,15.77
2018-09-21T22:22:53.197Z,15.81
2018-09-21T22:27:48.316Z,15.66
2018-09-21T22:32:43.296Z,15.58
2018-09-21T22:37:38.368Z,15.54
2018-09-21T22:42:33.498Z,15.78
2018-09-21T22:47:28.693Z,15.43
2018-09-21T22:52:23.785Z,15.66
2018-09-21T22:57:18.903Z,15.62
2018-09-21T23:02:14.084Z,15.63
2018-09-21T23:07:09.338Z,15.53
2018-09-21T23:12:04.490Z,15.49
2018-09-21T23:16:59.712Z,15.55
2018-09-21T23:21:54.754Z,15.53
2018-09-21T23:26:49.874Z,15.39
2018-09-21T23:31:44.977Z,15.34
2018-09-21T23:36:41.805Z,15.36
2018-09-21T23:41:38.288Z,15.31
2018-09-21T23:46:33.422Z,15.35
2018-09-21T23:51:30.712Z,15.01
2018-09-21T23:56:28.471Z,15.15
